Terminal Aerodrome Forecast
Issued by NWS Northern Indiana

Home | Current Version | Previous Version | Text Only | Print | Product List | Glossary On
Versions: 1 2 3 4 5 6 7 8 9 10 11 12 13 14 15 16 17 18 19 20 21 22 23
000
FTUS43 KIWX 202212 AAB
TAFFWA
TAF AMD
KFWA 202212Z 2022/2118 08007KT P6SM SCT035 BKN120
      TEMPO 2022/2024 BKN035
     FM210400 06008KT P6SM BKN025
     FM211300 08008KT 5SM -SHRA BR VCTS SCT015CB OVC025=

USA.gov is the U.S. government's official web portal to all federal, state and local government web resources and services.